Time;durP1;ratioP1;P1;durP2;ratioP2;P2;SDS_P1;SDS_P2;PMS_P1;PMS_P2;Temp;Humidity;BMP_temperature;BMP_pressure;BME280_temperature;BME280_humidity;BME280_pressure;Samples;Min_cycle;Max_cycle;Signal;HPM_P1;HPM_P2
2023/11/26 00:01:41;;;;;;;38.10;17.50;;;;;;;2.29;64.37;98783.87;106208;1256;60559;-55
2023/11/26 00:04:09;;;;;;;37.10;16.70;;;;;;;2.22;64.33;98785.73;107049;1251;59534;-54
2023/11/26 00:06:43;;;;;;;38.40;19.60;;;;;;;2.16;64.32;98789.63;105476;1251;63682;-55
2023/11/26 00:09:11;;;;;;;32.90;18.80;;;;;;;2.11;64.39;98795.48;105703;1254;61949;-54
2023/11/26 00:11:38;;;;;;;33.00;18.00;;;;;;;2.08;64.39;98796.79;107139;1254;63785;-54
2023/11/26 00:14:06;;;;;;;31.70;16.90;;;;;;;2.03;64.38;98799.67;105814;1259;60522;-56
2023/11/26 00:16:37;;;;;;;43.00;19.90;;;;;;;1.99;64.41;98799.08;105358;1259;60381;-56
2023/11/26 00:19:05;;;;;;;29.10;15.60;;;;;;;1.97;64.70;98805.61;105774;1253;63600;-55
2023/11/26 00:21:33;;;;;;;33.30;13.20;;;;;;;2.03;64.78;98809.54;105844;1258;60444;-56
2023/11/26 00:24:02;;;;;;;39.00;19.90;;;;;;;2.12;64.88;98803.71;106036;1254;63717;-55
2023/11/26 00:26:30;;;;;;;32.90;17.20;;;;;;;2.24;65.16;98798.93;106090;1256;60651;-55
2023/11/26 00:29:00;;;;;;;25.30;13.00;;;;;;;2.36;65.35;98800.28;105536;1257;60447;-51
2023/11/26 00:31:27;;;;;;;28.40;12.80;;;;;;;2.44;65.17;98798.21;106023;1251;63744;-56
2023/11/26 00:33:55;;;;;;;22.00;11.40;;;;;;;2.48;64.82;98803.95;106089;1256;61392;-55
2023/11/26 00:36:23;;;;;;;39.20;17.80;;;;;;;2.52;64.65;98800.73;106120;1254;62428;-57
2023/11/26 00:38:51;;;;;;;42.80;22.20;;;;;;;2.56;64.74;98799.23;105327;1251;61176;-55
2023/11/26 00:41:20;;;;;;;46.50;22.40;;;;;;;2.59;64.90;98802.45;105463;1259;60364;-55
2023/11/26 00:43:49;;;;;;;41.30;21.90;;;;;;;2.62;64.97;98803.48;105348;1254;63808;-55
2023/11/26 00:46:17;;;;;;;45.00;25.10;;;;;;;2.62;64.95;98806.95;105527;1256;71250;-55
2023/11/26 00:48:44;;;;;;;46.50;25.80;;;;;;;2.59;64.75;98802.80;105184;1254;63729;-55
2023/11/26 00:51:19;;;;;;;51.70;21.60;;;;;;;2.53;64.56;98793.56;105313;1257;60437;-55
2023/11/26 00:53:48;;;;;;;49.90;24.50;;;;;;;2.46;64.50;98784.20;106132;1255;60315;-52
2023/11/26 00:56:26;;;;;;;47.60;23.40;;;;;;;2.38;64.49;98777.48;105436;1258;63702;-55
2023/11/26 00:58:55;;;;;;;45.50;20.10;;;;;;;2.34;64.41;98773.80;105586;1251;61365;-56
2023/11/26 01:01:22;;;;;;;42.60;21.20;;;;;;;2.32;64.36;98765.95;105943;1257;63767;-56
2023/11/26 01:03:51;;;;;;;45.40;20.10;;;;;;;2.32;64.39;98761.14;105124;1254;60594;-48
2023/11/26 01:06:21;;;;;;;49.60;23.20;;;;;;;2.30;64.66;98754.70;106372;1256;60354;-57
2023/11/26 01:08:53;;;;;;;37.90;21.70;;;;;;;2.26;64.81;98745.70;106041;1258;73818;-56
2023/11/26 01:11:21;;;;;;;40.40;20.60;;;;;;;2.21;64.99;98739.25;105801;1251;61303;-55
2023/11/26 01:13:49;;;;;;;41.70;21.30;;;;;;;2.16;65.16;98736.66;106457;1254;64233;-55
2023/11/26 01:16:17;;;;;;;51.20;23.00;;;;;;;2.15;65.17;98734.32;105526;1254;60575;-55
2023/11/26 01:18:45;;;;;;;50.00;26.30;;;;;;;2.17;65.21;98738.69;105485;1257;60449;-55
2023/11/26 01:21:13;;;;;;;44.50;21.40;;;;;;;2.17;65.37;98746.45;107283;1253;64159;-55
2023/11/26 01:23:41;;;;;;;50.60;25.50;;;;;;;2.16;65.57;98752.98;105861;1257;61290;-55
2023/11/26 01:26:10;;;;;;;53.00;24.50;;;;;;;2.12;65.69;98753.90;105481;1256;64265;-55
2023/11/26 01:28:38;;;;;;;49.40;24.90;;;;;;;2.07;65.88;98756.16;105682;1260;60444;-59
2023/11/26 01:31:09;;;;;;;51.10;28.40;;;;;;;2.03;65.98;98766.98;105345;1251;60480;-55
2023/11/26 01:33:37;;;;;;;44.80;22.40;;;;;;;2.03;65.99;98769.91;107097;1259;64907;-56
2023/11/26 01:36:09;;;;;;;43.60;24.80;;;;;;;2.07;65.86;98765.69;105325;1258;60497;-55
2023/11/26 01:38:37;;;;;;;54.30;22.80;;;;;;;2.11;65.83;98756.40;106071;1251;63942;-56
2023/11/26 01:41:05;;;;;;;44.40;23.30;;;;;;;2.12;65.87;98751.46;105795;1255;60428;-55
2023/11/26 01:43:33;;;;;;;40.30;19.80;;;;;;;2.10;65.89;98752.35;107315;1252;60325;-55
2023/11/26 01:46:04;;;;;;;39.50;20.90;;;;;;;2.06;65.93;98749.86;105903;1257;64837;-56
2023/11/26 01:48:32;;;;;;;41.90;23.00;;;;;;;2.00;65.96;98746.79;106326;1259;60412;-53
2023/11/26 01:50:59;;;;;;;45.20;22.50;;;;;;;1.95;65.99;98744.08;106003;1254;63736;-56
2023/11/26 01:53:27;;;;;;;46.40;21.70;;;;;;;1.95;65.79;98745.23;108525;1258;59699;-55
2023/11/26 01:55:54;;;;;;;45.20;22.20;;;;;;;1.97;65.71;98745.41;105549;1256;60431;-55
2023/11/26 01:58:22;;;;;;;42.20;20.00;;;;;;;1.99;65.71;98737.50;106921;1257;64939;-55
2023/11/26 02:00:50;;;;;;;44.40;21.50;;;;;;;1.97;65.96;98735.39;106052;1252;62089;-53
2023/11/26 02:03:18;;;;;;;49.40;23.00;;;;;;;1.96;66.10;98729.83;105840;1257;63846;-53
2023/11/26 02:05:46;;;;;;;41.40;21.00;;;;;;;1.92;66.11;98716.42;105294;1260;60539;-56
2023/11/26 02:08:15;;;;;;;36.30;20.30;;;;;;;1.87;66.23;98713.48;105752;1257;60540;-54
2023/11/26 02:10:43;;;;;;;32.40;16.60;;;;;;;1.86;66.13;98706.48;105647;1251;64896;-53
2023/11/26 02:13:10;;;;;;;40.50;21.40;;;;;;;1.89;66.07;98699.52;105552;1258;61381;-54
2023/11/26 02:15:38;;;;;;;39.70;18.30;;;;;;;1.93;66.12;98694.54;105883;1257;62437;-54
2023/11/26 02:18:07;;;;;;;51.40;22.10;;;;;;;1.98;66.23;98699.22;106359;1257;60453;-54
2023/11/26 02:20:35;;;;;;;44.30;20.70;;;;;;;2.00;66.33;98697.32;106241;1257;60410;-54
2023/11/26 02:23:03;;;;;;;41.70;19.40;;;;;;;2.01;66.35;98687.89;106531;1252;64899;-55
2023/11/26 02:25:35;;;;;;;39.90;22.20;;;;;;;2.00;66.34;98679.52;106297;1251;61833;-56
2023/11/26 02:28:05;;;;;;;49.30;19.70;;;;;;;1.98;66.26;98677.26;105273;1260;62524;-56
2023/11/26 02:30:34;;;;;;;51.10;23.00;;;;;;;1.95;66.24;98671.42;106376;1256;60349;-56
2023/11/26 02:33:01;;;;;;;37.00;18.40;;;;;;;1.97;66.22;98665.73;105435;1260;60352;-55
2023/11/26 02:35:30;;;;;;;33.00;18.40;;;;;;;2.01;66.28;98663.71;105530;1253;63623;-56
2023/11/26 02:37:59;;;;;;;41.50;20.70;;;;;;;2.04;66.59;98661.04;106090;1257;61298;-57
2023/11/26 02:40:26;;;;;;;35.70;17.50;;;;;;;2.05;66.94;98656.67;105583;1259;62532;-54
2023/11/26 02:42:59;;;;;;;31.00;16.10;;;;;;;2.03;67.14;98655.77;103589;1260;3447316;-56
2023/11/26 02:47:59;;;;;;;35.40;16.20;;;;;;;1.70;68.15;98654.99;103085;1288;599552;-56
2023/11/26 02:50:28;;;;;;;33.00;14.90;;;;;;;1.94;67.58;98651.94;105830;1266;59272;-54
2023/11/26 02:52:55;;;;;;;31.00;15.80;;;;;;;2.03;67.43;98647.14;104336;1273;59283;-58
2023/11/26 02:55:24;;;;;;;32.40;16.60;;;;;;;2.08;67.30;98641.58;104456;1272;62103;-55
2023/11/26 02:57:51;;;;;;;30.80;15.80;;;;;;;2.12;67.25;98635.45;105383;1266;60306;-59
2023/11/26 03:00:20;;;;;;;40.90;17.70;;;;;;;2.13;67.28;98629.65;104574;1272;62500;-56
2023/11/26 03:02:48;;;;;;;29.60;14.60;;;;;;;2.11;67.31;98627.23;103602;1269;58986;-57
2023/11/26 03:05:21;;;;;;;33.20;16.70;;;;;;;2.08;67.32;98626.73;104543;1268;63894;-57
2023/11/26 03:07:58;;;;;;;28.80;15.40;;;;;;;2.02;67.18;98623.34;104674;1269;61445;-55
2023/11/26 03:13:12;;;;;;;;;;;;;;;1.95;67.17;98624.38;105423;1263;59733;-56
2023/11/26 03:15:41;;;;;;;30.80;13.30;;;;;;;2.00;67.18;98628.01;104871;1269;59628;-56
2023/11/26 03:18:10;;;;;;;33.00;15.20;;;;;;;2.04;67.26;98630.77;105666;1266;62970;-53
2023/11/26 03:20:41;;;;;;;29.50;13.60;;;;;;;2.10;67.30;98637.17;105512;1269;61853;-53
2023/11/26 03:23:09;;;;;;;26.20;11.90;;;;;;;2.12;67.37;98640.29;106017;1266;63742;-53
2023/11/26 03:25:38;;;;;;;36.40;14.50;;;;;;;2.09;67.28;98642.60;105931;1268;59758;-51
2023/11/26 03:28:06;;;;;;;22.60;11.40;;;;;;;2.06;67.28;98642.47;105854;1264;59565;-55
2023/11/26 03:30:34;;;;;;;29.40;14.30;;;;;;;2.02;67.28;98641.54;104696;1277;64144;-50
2023/11/26 03:33:02;;;;;;;30.50;14.30;;;;;;;1.98;67.28;98640.04;105767;1264;60299;-53
2023/11/26 03:35:30;;;;;;;26.10;11.00;;;;;;;2.00;67.12;98638.02;106161;1264;62522;-55
2023/11/26 03:37:58;;;;;;;24.80;10.40;;;;;;;2.03;66.98;98628.64;104995;1268;59751;-56
2023/11/26 03:40:26;;;;;;;29.10;15.60;;;;;;;2.04;66.87;98621.28;104632;1264;59596;-55
2023/11/26 03:42:54;;;;;;;33.90;15.00;;;;;;;2.04;67.01;98625.39;104667;1268;63390;-55
2023/11/26 03:45:22;;;;;;;26.90;13.20;;;;;;;2.02;67.13;98628.02;105231;1272;61416;-56
2023/11/26 03:47:51;;;;;;;27.90;14.60;;;;;;;2.00;67.12;98631.62;104527;1270;62542;-55
2023/11/26 03:50:19;;;;;;;30.10;15.30;;;;;;;1.96;67.04;98630.67;105662;1264;59741;-54
2023/11/26 03:52:48;;;;;;;29.40;13.60;;;;;;;1.95;66.98;98636.98;104782;1268;59748;-54
2023/11/26 03:55:16;;;;;;;28.30;14.00;;;;;;;1.99;66.79;98645.16;105329;1265;62834;-55
2023/11/26 03:57:44;;;;;;;22.00;10.30;;;;;;;2.03;66.68;98653.33;105053;1269;61338;-55
2023/11/26 04:00:12;;;;;;;24.30;11.50;;;;;;;2.01;66.63;98655.23;106515;1268;62450;-54
2023/11/26 04:02:40;;;;;;;23.80;11.20;;;;;;;1.96;66.78;98665.63;104757;1266;60821;-54
2023/11/26 04:05:09;;;;;;;21.40;9.10;;;;;;;1.94;66.88;98668.92;104594;1266;59782;-52
2023/11/26 04:07:37;;;;;;;21.60;10.50;;;;;;;1.95;66.83;98656.90;105004;1269;62888;-55
2023/11/26 04:10:08;;;;;;;24.60;10.80;;;;;;;2.01;66.66;98652.11;104854;1269;61359;-53
2023/11/26 04:12:39;;;;;;;22.00;9.90;;;;;;;2.05;66.52;98649.93;105786;1262;63914;-53
2023/11/26 04:15:09;;;;;;;24.40;9.80;;;;;;;2.07;66.46;98648.10;105127;1263;59848;-52
2023/11/26 04:17:37;;;;;;;23.20;11.10;;;;;;;2.04;66.23;98646.42;105482;1257;60347;-54
2023/11/26 04:20:05;;;;;;;27.30;11.30;;;;;;;1.97;66.33;98648.27;105533;1258;62885;-52
2023/11/26 04:22:33;;;;;;;37.50;13.10;;;;;;;1.91;66.45;98645.92;105576;1261;60278;-50
2023/11/26 04:25:01;;;;;;;24.70;11.10;;;;;;;1.90;66.44;98645.48;105101;1260;63698;-54
2023/11/26 04:27:30;;;;;;;17.90;8.40;;;;;;;1.93;66.47;98643.52;106376;1261;59769;-54
2023/11/26 04:29:58;;;;;;;26.20;10.70;;;;;;;1.96;66.47;98638.13;105137;1259;59234;-57
2023/11/26 04:32:26;;;;;;;27.90;13.80;;;;;;;2.00;66.69;98641.09;106262;1262;65094;-55
2023/11/26 04:34:53;;;;;;;29.10;15.20;;;;;;;2.05;66.83;98644.20;104914;1264;61563;-55
2023/11/26 04:37:21;;;;;;;26.70;12.40;;;;;;;2.06;66.88;98638.62;105977;1257;62755;-54
2023/11/26 04:39:49;;;;;;;23.10;11.20;;;;;;;2.06;66.78;98637.79;106584;1260;59692;-52
2023/11/26 04:42:17;;;;;;;26.00;13.10;;;;;;;2.08;66.67;98634.88;105343;1260;60477;-54
2023/11/26 04:44:45;;;;;;;29.80;12.70;;;;;;;2.12;66.60;98639.95;105581;1256;64155;-52
2023/11/26 04:47:12;;;;;;;34.70;14.80;;;;;;;2.12;66.74;98644.56;105221;1257;63823;-52
2023/11/26 04:49:40;;;;;;;26.00;13.50;;;;;;;2.12;66.98;98648.88;105018;1257;62498;-52
2023/11/26 04:52:08;;;;;;;26.60;12.30;;;;;;;2.11;67.05;98647.61;105356;1261;59598;-53
2023/11/26 04:54:36;;;;;;;25.90;10.60;;;;;;;2.14;67.08;98646.54;105472;1260;59702;-50
2023/11/26 04:57:04;;;;;;;27.00;12.70;;;;;;;2.19;66.94;98644.27;106211;1261;64671;-52
2023/11/26 04:59:32;;;;;;;27.60;13.80;;;;;;;2.24;66.95;98642.86;106261;1258;60303;-51
2023/11/26 05:02:05;;;;;;;22.80;9.40;;;;;;;2.23;66.92;98633.93;105107;1263;62441;-51
2023/11/26 05:04:34;;;;;;;25.40;12.80;;;;;;;2.18;66.84;98633.98;106346;1260;59773;-50
2023/11/26 05:07:01;;;;;;;25.50;13.30;;;;;;;2.13;66.92;98633.97;105868;1260;59616;-51
2023/11/26 05:09:31;;;;;;;27.80;11.70;;;;;;;2.10;66.93;98641.61;105734;1257;64564;-52
2023/11/26 05:11:59;;;;;;;29.10;14.20;;;;;;;2.11;66.78;98636.16;105904;1257;61461;-54
2023/11/26 05:14:27;;;;;;;32.00;13.30;;;;;;;2.15;66.61;98635.73;105756;1260;65347;-53
2023/11/26 05:16:55;;;;;;;25.40;13.30;;;;;;;2.15;66.58;98629.15;105821;1257;60492;-54
2023/11/26 05:19:22;;;;;;;27.60;11.80;;;;;;;2.11;66.66;98628.38;105139;1258;60522;-54
2023/11/26 05:21:50;;;;;;;32.30;15.60;;;;;;;2.06;66.67;98633.41;105027;1260;64120;-54
2023/11/26 05:24:18;;;;;;;26.40;11.60;;;;;;;2.00;66.80;98635.91;105918;1261;61537;-54
2023/11/26 05:26:47;;;;;;;23.10;12.90;;;;;;;2.03;66.72;98637.27;105322;1260;62466;-54
2023/11/26 05:29:16;;;;;;;24.20;13.20;;;;;;;2.08;66.64;98637.64;105177;1256;59639;-55
2023/11/26 05:31:44;;;;;;;20.00;11.50;;;;;;;2.11;66.80;98639.27;105466;1260;59347;-54
2023/11/26 05:34:11;;;;;;;20.40;10.90;;;;;;;2.12;66.82;98638.86;105603;1258;64221;-51
2023/11/26 05:36:39;;;;;;;24.20;11.00;;;;;;;2.10;67.04;98639.37;105662;1257;61461;-54
2023/11/26 05:39:08;;;;;;;26.90;11.90;;;;;;;2.11;67.09;98643.06;105803;1259;64476;-50
2023/11/26 05:41:36;;;;;;;23.20;12.60;;;;;;;2.18;66.75;98647.61;105939;1264;59699;-51
2023/11/26 05:44:04;;;;;;;23.40;10.80;;;;;;;2.21;66.56;98643.91;105107;1258;59708;-53
2023/11/26 05:46:32;;;;;;;21.20;10.50;;;;;;;2.20;66.59;98647.29;106281;1255;62858;-53
2023/11/26 05:49:00;;;;;;;24.70;10.70;;;;;;;2.18;66.45;98648.13;105128;1260;60120;-53
2023/11/26 05:51:28;;;;;;;25.90;11.70;;;;;;;2.20;66.23;98645.38;105876;1260;62763;-55
2023/11/26 05:53:56;;;;;;;22.70;10.50;;;;;;;2.21;66.15;98635.83;105097;1257;59630;-53
2023/11/26 05:56:24;;;;;;;26.30;11.20;;;;;;;2.20;66.25;98634.98;106346;1260;59718;-53
2023/11/26 05:58:52;;;;;;;24.50;10.60;;;;;;;2.16;66.33;98631.69;105079;1261;64185;-53
2023/11/26 06:01:23;;;;;;;20.40;9.50;;;;;;;2.17;66.33;98629.02;107094;1257;61478;-54
2023/11/26 06:03:52;;;;;;;28.70;10.90;;;;;;;2.22;66.28;98633.32;105226;1256;63711;-55
2023/11/26 06:06:21;;;;;;;20.90;9.60;;;;;;;2.23;66.40;98631.33;105667;1262;59583;-53
2023/11/26 06:08:48;;;;;;;24.10;10.20;;;;;;;2.20;66.44;98628.94;105318;1255;60413;-52
2023/11/26 06:11:17;;;;;;;23.70;11.70;;;;;;;2.18;66.49;98634.79;106290;1257;64222;-52
2023/11/26 06:13:45;;;;;;;22.40;10.10;;;;;;;2.23;66.53;98639.11;106919;1260;61354;-52
2023/11/26 06:16:12;;;;;;;18.50;8.70;;;;;;;2.30;66.32;98637.08;105146;1256;62515;-52
2023/11/26 06:18:40;;;;;;;19.50;9.50;;;;;;;2.32;66.23;98636.03;104984;1257;59708;-51
2023/11/26 06:21:08;;;;;;;26.10;9.00;;;;;;;2.32;66.28;98644.14;105358;1257;59648;-51
2023/11/26 06:23:36;;;;;;;19.70;11.50;;;;;;;2.31;66.13;98644.60;105168;1260;63100;-53
2023/11/26 06:26:04;;;;;;;28.40;11.80;;;;;;;2.28;65.86;98646.02;106415;1257;61363;-57
2023/11/26 06:28:32;;;;;;;20.40;11.00;;;;;;;2.33;65.71;98649.95;105805;1259;63764;-52
2023/11/26 06:31:00;;;;;;;19.40;10.30;;;;;;;2.37;65.74;98644.46;107950;1256;59296;-52
2023/11/26 06:33:28;;;;;;;24.40;12.70;;;;;;;2.38;65.81;98641.95;108280;1256;59861;-52
2023/11/26 06:35:56;;;;;;;24.80;11.20;;;;;;;2.39;65.72;98637.44;106562;1257;62915;-52
2023/11/26 06:38:24;;;;;;;23.30;9.50;;;;;;;2.37;65.44;98632.00;105148;1257;61423;-53
2023/11/26 06:40:52;;;;;;;19.90;10.60;;;;;;;2.40;65.24;98629.04;105931;1258;63735;-52
2023/11/26 06:43:20;;;;;;;23.30;12.10;;;;;;;2.41;65.29;98629.33;105053;1257;59646;-56
2023/11/26 06:45:47;;;;;;;19.30;10.40;;;;;;;2.37;65.19;98630.80;104969;1261;59753;-56
2023/11/26 06:48:15;;;;;;;31.20;11.50;;;;;;;2.33;64.97;98626.94;105820;1260;64315;-54
2023/11/26 06:50:42;;;;;;;23.10;10.00;;;;;;;2.27;64.90;98623.42;105096;1260;60250;-55
2023/11/26 06:53:10;;;;;;;19.80;9.90;;;;;;;2.27;64.94;98624.69;105094;1258;64984;-56
2023/11/26 06:55:39;;;;;;;23.40;9.30;;;;;;;2.28;64.94;98621.46;105566;1255;60577;-55
2023/11/26 06:58:06;;;;;;;18.80;9.50;;;;;;;2.28;65.13;98617.99;107070;1257;59135;-54
2023/11/26 07:00:34;;;;;;;15.50;8.20;;;;;;;2.28;65.11;98612.65;105505;1257;65240;-53
2023/11/26 07:03:02;;;;;;;20.50;8.90;;;;;;;2.26;65.13;98607.80;105588;1257;62060;-53
2023/11/26 07:05:30;;;;;;;22.20;10.30;;;;;;;2.22;65.14;98610.08;104985;1257;71149;-54
2023/11/26 07:07:58;;;;;;;23.80;11.40;;;;;;;2.23;65.02;98602.98;106498;1256;60585;-54
2023/11/26 07:10:26;;;;;;;16.70;9.00;;;;;;;2.30;64.87;98597.96;104931;1261;60571;-54
2023/11/26 07:12:55;;;;;;;19.70;10.10;;;;;;;2.32;64.81;98589.30;105334;1257;75241;-55
2023/11/26 07:15:23;;;;;;;23.90;10.60;;;;;;;2.34;64.80;98591.63;105552;1255;61661;-55
2023/11/26 07:17:50;;;;;;;22.50;8.40;;;;;;;2.33;64.70;98590.81;105238;1258;62534;-54
2023/11/26 07:20:18;;;;;;;17.70;8.00;;;;;;;2.29;64.73;98589.37;105251;1260;60582;-54
2023/11/26 07:22:46;;;;;;;24.60;12.30;;;;;;;2.28;64.72;98582.15;106432;1257;60550;-54
2023/11/26 07:25:16;;;;;;;20.80;12.40;;;;;;;2.33;64.61;98573.83;106241;1256;64948;-55
2023/11/26 07:27:44;;;;;;;22.60;12.10;;;;;;;2.36;64.57;98576.52;105386;1260;68139;-49
2023/11/26 07:30:14;;;;;;;28.10;12.80;;;;;;;2.38;64.54;98577.13;105463;1257;63702;-52
2023/11/26 07:32:45;;;;;;;24.30;9.80;;;;;;;2.37;64.33;98571.83;107774;1254;60496;-54
2023/11/26 07:35:13;;;;;;;25.70;12.80;;;;;;;2.33;64.15;98572.27;107073;1255;60543;-52
2023/11/26 07:37:40;;;;;;;24.70;10.70;;;;;;;2.32;64.07;98571.65;105328;1257;63688;-52
2023/11/26 07:40:13;;;;;;;20.90;8.90;;;;;;;2.37;64.06;98568.31;105833;1256;62084;-53
2023/11/26 07:42:41;;;;;;;17.70;9.90;;;;;;;2.40;64.06;98561.74;105468;1268;63751;-53
2023/11/26 07:45:11;;;;;;;21.80;10.60;;;;;;;2.40;64.34;98565.35;105707;1257;60527;-53
2023/11/26 07:47:38;;;;;;;19.20;10.30;;;;;;;2.40;64.44;98560.51;105485;1255;60579;-51
2023/11/26 07:50:09;;;;;;;24.80;10.60;;;;;;;2.42;64.21;98557.45;105554;1254;74307;-53
2023/11/26 07:52:40;;;;;;;17.90;7.70;;;;;;;2.48;63.78;98559.71;109211;1253;60344;-53
2023/11/26 07:55:22;;;;;;;20.90;8.80;;;;;;;2.51;63.67;98564.33;105425;1255;65117;-55
2023/11/26 07:57:51;;;;;;;16.00;9.20;;;;;;;2.49;63.43;98569.02;107122;1257;59552;-52
2023/11/26 08:00:22;;;;;;;20.70;8.30;;;;;;;2.46;63.12;98569.11;106512;1252;60558;-55
2023/11/26 08:02:49;;;;;;;20.40;7.10;;;;;;;2.47;62.81;98565.41;105355;1257;64966;-53
2023/11/26 08:05:18;;;;;;;22.30;7.80;;;;;;;2.49;62.90;98557.92;105208;1253;61720;-53
2023/11/26 08:07:46;;;;;;;15.60;9.00;;;;;;;2.46;62.87;98556.08;106019;1254;63791;-55
2023/11/26 08:10:22;;;;;;;18.10;8.50;;;;;;;2.41;62.57;98556.10;105956;1253;60442;-53
2023/11/26 08:12:50;;;;;;;20.30;9.60;;;;;;;2.38;62.72;98562.37;105541;1253;60428;-55
2023/11/26 08:15:19;;;;;;;18.70;8.10;;;;;;;2.42;62.77;98560.39;105261;1254;65560;-56
2023/11/26 08:17:51;;;;;;;15.40;7.00;;;;;;;2.45;62.49;98559.83;105463;1253;61513;-56
2023/11/26 08:20:21;;;;;;;16.40;7.40;;;;;;;2.43;62.46;98555.63;109222;1253;64301;-54
2023/11/26 08:22:51;;;;;;;14.60;7.30;;;;;;;2.40;62.50;98549.27;109144;1252;59442;-61
2023/11/26 08:25:23;;;;;;;15.60;7.30;;;;;;;2.40;62.29;98555.31;109185;1253;58542;-59
2023/11/26 08:27:51;;;;;;;15.80;7.20;;;;;;;2.40;62.21;98555.51;109250;1253;66200;-60
2023/11/26 08:30:31;;;;;;;13.00;6.70;;;;;;;2.45;62.10;98548.57;109160;1253;60114;-58
2023/11/26 08:32:59;;;;;;;14.20;7.10;;;;;;;2.48;61.71;98538.98;107551;1252;64694;-61
2023/11/26 08:35:29;;;;;;;15.10;6.50;;;;;;;2.46;61.57;98540.54;107430;1253;60534;-57
2023/11/26 08:37:57;;;;;;;15.70;7.90;;;;;;;2.42;61.40;98545.18;105885;1258;60426;-52
2023/11/26 08:40:26;;;;;;;15.30;7.50;;;;;;;2.37;61.57;98550.83;105207;1257;65641;-54
2023/11/26 08:42:54;;;;;;;16.20;7.70;;;;;;;2.36;61.75;98550.21;105618;1257;60256;-54
2023/11/26 08:45:22;;;;;;;14.70;6.80;;;;;;;2.39;61.74;98539.95;106995;1253;63741;-55
2023/11/26 08:47:53;;;;;;;20.50;9.40;;;;;;;2.46;61.52;98535.48;107062;1252;60451;-55
2023/11/26 08:50:20;;;;;;;21.70;8.00;;;;;;;2.46;61.34;98530.52;106017;1253;60463;-54
2023/11/26 08:52:48;;;;;;;13.10;6.90;;;;;;;2.45;61.32;98526.93;105252;1254;63623;-54
2023/11/26 08:55:16;;;;;;;16.30;7.80;;;;;;;2.42;61.56;98522.80;105182;1256;60461;-55
2023/11/26 08:57:44;;;;;;;14.70;7.30;;;;;;;2.40;61.44;98514.27;105400;1257;62522;-54
2023/11/26 09:00:12;;;;;;;15.00;8.00;;;;;;;2.45;61.35;98502.14;105283;1253;60412;-53
2023/11/26 09:02:40;;;;;;;19.00;8.60;;;;;;;2.47;61.12;98489.73;105663;1254;60470;-54
2023/11/26 09:05:08;;;;;;;19.70;9.60;;;;;;;2.41;61.08;98475.41;105613;1254;63646;-55
2023/11/26 09:07:36;;;;;;;13.50;6.30;;;;;;;2.37;61.28;98468.14;105315;1253;61311;-56
2023/11/26 09:10:04;;;;;;;14.40;6.40;;;;;;;2.32;61.40;98463.19;106441;1257;63718;-52
2023/11/26 09:12:32;;;;;;;14.10;5.60;;;;;;;2.30;61.68;98454.50;108215;1253;60583;-51
2023/11/26 09:15:05;;;;;;;18.00;6.60;;;;;;;2.36;61.91;98449.02;105461;1253;60390;-54
2023/11/26 09:17:35;;;;;;;14.80;7.20;;;;;;;2.40;62.02;98443.67;106468;1257;64994;-53
2023/11/26 09:20:04;;;;;;;22.60;9.10;;;;;;;2.40;61.93;98434.14;105306;1257;70606;-54
2023/11/26 09:22:32;;;;;;;16.20;7.70;;;;;;;2.38;62.04;98428.77;106612;1254;63731;-55
2023/11/26 09:24:59;;;;;;;20.10;7.00;;;;;;;2.38;61.92;98431.02;105791;1253;60884;-55
2023/11/26 09:27:27;;;;;;;13.70;6.10;;;;;;;2.42;61.85;98429.18;105911;1254;60454;-54
2023/11/26 09:29:56;;;;;;;15.70;6.70;;;;;;;2.46;61.83;98426.44;105983;1253;63889;-54
2023/11/26 09:32:25;;;;;;;21.40;8.00;;;;;;;2.47;61.97;98421.34;109165;1253;63670;-54
2023/11/26 09:35:01;;;;;;;14.90;6.20;;;;;;;2.45;61.81;98409.73;107967;1253;64213;-54
2023/11/26 09:37:35;;;;;;;13.60;6.50;;;;;;;2.44;61.88;98393.08;106700;1256;60570;-54
2023/11/26 09:40:06;;;;;;;15.50;6.70;;;;;;;2.43;61.69;98383.27;105410;1253;60536;-54
2023/11/26 09:42:34;;;;;;;10.60;6.30;;;;;;;2.45;61.64;98375.69;105562;1254;67456;-53
2023/11/26 09:45:04;;;;;;;15.70;8.00;;;;;;;2.43;61.69;98378.42;106876;1251;60337;-54
2023/11/26 09:47:32;;;;;;;14.60;6.50;;;;;;;2.41;61.87;98378.07;107587;1253;64296;-50
2023/11/26 09:50:00;;;;;;;14.60;6.90;;;;;;;2.40;61.97;98364.98;105098;1253;60493;-57
2023/11/26 09:52:27;;;;;;;13.40;7.40;;;;;;;2.45;62.02;98362.65;107690;1253;60620;-50
2023/11/26 09:54:56;;;;;;;16.90;7.70;;;;;;;2.45;61.79;98353.33;107099;1253;65408;-48
2023/11/26 09:57:26;;;;;;;13.70;6.00;;;;;;;2.46;61.88;98350.69;105518;1258;60877;-51
2023/11/26 09:59:53;;;;;;;15.30;6.70;;;;;;;2.46;62.12;98346.86;106675;1256;62589;-53
2023/11/26 10:02:21;;;;;;;14.70;7.20;;;;;;;2.48;62.10;98338.92;105301;1253;60414;-50
2023/11/26 10:04:50;;;;;;;11.90;6.30;;;;;;;2.53;61.92;98335.20;105236;1257;60426;-52
2023/11/26 10:07:32;;;;;;;14.70;6.00;;;;;;;2.55;61.80;98322.77;105349;1254;65225;-54
2023/11/26 10:10:10;;;;;;;12.30;7.70;;;;;;;2.52;61.78;98317.46;105903;1252;60655;-54
2023/11/26 10:13:00;;;;;;;12.30;5.80;;;;;;;2.48;61.71;98310.22;105641;1255;63784;-49
2023/11/26 10:15:29;;;;;;;15.00;5.20;;;;;;;2.47;61.71;98305.77;106044;1253;60628;-53
2023/11/26 10:18:03;;;;;;;11.90;6.20;;;;;;;2.51;61.70;98314.59;106067;1256;60380;-53
2023/11/26 10:20:35;;;;;;;12.10;6.50;;;;;;;2.54;61.42;98306.72;106544;1255;65033;-51
2023/11/26 10:23:03;;;;;;;13.30;5.70;;;;;;;2.51;60.92;98295.90;106777;1255;60672;-53
2023/11/26 10:25:30;;;;;;;11.90;5.40;;;;;;;2.51;61.00;98302.52;105207;1254;63719;-53
2023/11/26 10:27:59;;;;;;;16.80;5.80;;;;;;;2.47;61.14;98302.62;106046;1254;60535;-54
2023/11/26 10:30:32;;;;;;;11.40;5.70;;;;;;;2.50;60.79;98300.12;106743;1253;60330;-51
2023/11/26 10:33:04;;;;;;;13.50;7.00;;;;;;;2.56;60.68;98298.29;106418;1253;63633;-55
2023/11/26 10:35:52;;;;;;;10.50;4.90;;;;;;;2.60;60.86;98300.90;106046;1253;62808;-55
2023/11/26 10:38:27;;;;;;;11.70;5.80;;;;;;;2.63;60.92;98298.08;105708;1253;62558;-54
2023/11/26 10:40:56;;;;;;;11.30;5.20;;;;;;;2.64;60.82;98300.46;105205;1254;60596;-54
2023/11/26 10:43:24;;;;;;;9.40;4.40;;;;;;;2.63;60.61;98302.89;105825;1257;60406;-53
2023/11/26 10:45:51;;;;;;;10.40;4.30;;;;;;;2.67;59.97;98307.44;106365;1252;63912;-54
2023/11/26 10:48:19;;;;;;;11.60;4.40;;;;;;;2.69;59.98;98314.89;107238;1253;61329;-52
2023/11/26 10:51:07;;;;;;;17.10;5.40;;;;;;;2.68;59.85;98320.30;105272;1257;63788;-54
2023/11/26 10:54:05;;;;;;;13.40;4.30;;;;;;;2.66;59.35;98318.44;105764;1253;60637;-56
2023/11/26 10:56:44;;;;;;;11.30;3.90;;;;;;;2.64;59.48;98316.67;106887;1253;60390;-53
2023/11/26 10:59:17;;;;;;;9.60;3.80;;;;;;;2.66;59.58;98318.58;105963;1257;65110;-53
2023/11/26 11:01:44;;;;;;;8.90;4.10;;;;;;;2.72;59.33;98325.35;105706;1253;61376;-53
2023/11/26 11:04:14;;;;;;;13.10;3.10;;;;;;;2.75;59.41;98323.73;107328;1253;62568;-53
2023/11/26 11:06:43;;;;;;;11.20;4.20;;;;;;;2.75;59.12;98320.46;105523;1253;60606;-50
2023/11/26 11:09:17;;;;;;;11.50;3.40;;;;;;;2.73;58.72;98312.63;105789;1254;59224;-55
2023/11/26 11:11:55;;;;;;;8.90;4.50;;;;;;;2.73;58.44;98311.42;106116;1253;64977;-55
2023/11/26 11:14:23;;;;;;;9.20;3.20;;;;;;;2.69;58.05;98302.25;105315;1253;61469;-55
2023/11/26 11:16:51;;;;;;;9.50;3.40;;;;;;;2.72;57.45;98297.52;105393;1253;62472;-55
2023/11/26 11:19:51;;;;;;;9.50;4.10;;;;;;;2.73;56.98;98306.27;108415;1253;58429;-55
2023/11/26 11:22:18;;;;;;;10.70;3.40;;;;;;;2.71;56.81;98309.02;108086;1253;59482;-54
2023/11/26 11:24:46;;;;;;;8.50;3.00;;;;;;;2.74;56.78;98316.90;109274;1253;65290;-55
2023/11/26 11:27:16;;;;;;;7.50;3.60;;;;;;;2.76;56.97;98314.14;109262;1252;61545;-56
2023/11/26 11:29:43;;;;;;;10.20;3.40;;;;;;;2.78;56.79;98311.23;106526;1256;62437;-54
2023/11/26 11:32:11;;;;;;;9.00;4.00;;;;;;;2.76;56.44;98305.30;109052;1254;58379;-55
2023/11/26 11:34:38;;;;;;;8.30;3.50;;;;;;;2.82;56.12;98294.27;109204;1253;58541;-54
2023/11/26 11:37:08;;;;;;;7.40;3.50;;;;;;;2.89;55.87;98281.20;109083;1252;63714;-53